sensor_id;sensor_type;location;lat;lon;timestamp;pressure;altitude;pressure_sealevel;temperature;humidity
3832;BME280;12460;42.662;23.288;2023-04-26T00:08:11;93610.56;;;11.71;66.33
3832;BME280;12460;42.662;23.288;2023-04-26T00:23:16;93596.94;;;11.37;66.78
3832;BME280;12460;42.662;23.288;2023-04-26T00:38:21;93578.59;;;11.05;66.65
3832;BME280;12460;42.662;23.288;2023-04-26T00:53:25;93575.22;;;10.87;66.82
3832;BME280;12460;42.662;23.288;2023-04-26T01:08:32;93591.84;;;10.74;67.25
3832;BME280;12460;42.662;23.288;2023-04-26T01:23:36;93569.09;;;10.60;66.88
3832;BME280;12460;42.662;23.288;2023-04-26T01:38:40;93589.69;;;10.43;66.99
3832;BME280;12460;42.662;23.288;2023-04-26T01:53:44;93588.22;;;10.42;67.40
3832;BME280;12460;42.662;23.288;2023-04-26T02:08:49;93558.22;;;10.26;67.08
3832;BME280;12460;42.662;23.288;2023-04-26T02:23:54;93562.97;;;10.23;67.23
3832;BME280;12460;42.662;23.288;2023-04-26T02:38:59;93567.28;;;10.15;67.39
3832;BME280;12460;42.662;23.288;2023-04-26T02:54:04;93536.94;;;10.32;67.63
3832;BME280;12460;42.662;23.288;2023-04-26T03:09:10;93547.72;;;10.36;67.54
3832;BME280;12460;42.662;23.288;2023-04-26T03:24:14;93551.00;;;10.13;68.75
3832;BME280;12460;42.662;23.288;2023-04-26T03:39:20;93557.94;;;10.31;68.64
3832;BME280;12460;42.662;23.288;2023-04-26T03:54:24;93556.16;;;10.36;69.53
3832;BME280;12460;42.662;23.288;2023-04-26T04:09:32;93573.84;;;13.81;61.67
3832;BME280;12460;42.662;23.288;2023-04-26T04:24:36;93575.81;;;13.20;62.66
3832;BME280;12460;42.662;23.288;2023-04-26T04:39:41;93595.00;;;13.68;61.61
3832;BME280;12460;42.662;23.288;2023-04-26T04:54:46;93594.06;;;14.12;59.26
3832;BME280;12460;42.662;23.288;2023-04-26T05:09:50;93590.44;;;14.35;58.04
3832;BME280;12460;42.662;23.288;2023-04-26T05:24:55;93595.94;;;14.95;56.61
3832;BME280;12460;42.662;23.288;2023-04-26T05:40:00;93608.63;;;15.85;53.69
3832;BME280;12460;42.662;23.288;2023-04-26T05:55:06;93603.16;;;16.72;51.63
3832;BME280;12460;42.662;23.288;2023-04-26T06:10:10;93605.56;;;17.83;48.67
3832;BME280;12460;42.662;23.288;2023-04-26T06:25:16;93618.75;;;17.45;46.09
3832;BME280;12460;42.662;23.288;2023-04-26T06:40:21;93620.13;;;17.00;45.61
3832;BME280;12460;42.662;23.288;2023-04-26T06:55:27;93615.06;;;18.21;43.15
3832;BME280;12460;42.662;23.288;2023-04-26T07:10:32;93630.97;;;18.59;42.09
3832;BME280;12460;42.662;23.288;2023-04-26T07:25:37;93627.13;;;21.14;35.76
3832;BME280;12460;42.662;23.288;2023-04-26T07:40:42;93637.81;;;20.94;34.40
3832;BME280;12460;42.662;23.288;2023-04-26T07:55:51;93640.63;;;21.11;33.08
3832;BME280;12460;42.662;23.288;2023-04-26T08:10:56;93647.69;;;21.99;32.81
3832;BME280;12460;42.662;23.288;2023-04-26T08:26:02;93648.66;;;21.38;32.45
3832;BME280;12460;42.662;23.288;2023-04-26T08:41:10;93660.38;;;20.83;33.53
3832;BME280;12460;42.662;23.288;2023-04-26T08:56:16;93647.88;;;20.53;33.94
3832;BME280;12460;42.662;23.288;2023-04-26T09:11:21;93656.28;;;20.49;33.71
3832;BME280;12460;42.662;23.288;2023-04-26T09:26:26;93666.03;;;20.23;34.03
3832;BME280;12460;42.662;23.288;2023-04-26T09:41:45;93654.03;;;21.07;32.74
3832;BME280;12460;42.662;23.288;2023-04-26T09:56:59;93640.41;;;22.43;31.15
3832;BME280;12460;42.662;23.288;2023-04-26T10:12:05;93647.72;;;22.74;29.84
3832;BME280;12460;42.662;23.288;2023-04-26T10:27:09;93631.53;;;22.09;29.85
3832;BME280;12460;42.662;23.288;2023-04-26T10:42:28;93638.69;;;21.85;29.95
3832;BME280;12460;42.662;23.288;2023-04-26T10:58:24;93626.53;;;20.98;30.44
3832;BME280;12460;42.662;23.288;2023-04-26T11:13:35;93625.81;;;20.97;30.15
3832;BME280;12460;42.662;23.288;2023-04-26T11:28:42;93618.44;;;20.90;29.68
3832;BME280;12460;42.662;23.288;2023-04-26T11:43:48;93636.69;;;20.40;30.27
3832;BME280;12460;42.662;23.288;2023-04-26T11:58:53;93616.22;;;22.50;27.98
3832;BME280;12460;42.662;23.288;2023-04-26T12:13:58;93615.47;;;21.29;29.17
3832;BME280;12460;42.662;23.288;2023-04-26T12:29:05;93605.66;;;20.93;28.94
3832;BME280;12460;42.662;23.288;2023-04-26T12:44:11;93612.88;;;20.33;30.33
3832;BME280;12460;42.662;23.288;2023-04-26T12:59:18;93609.69;;;20.05;30.89
3832;BME280;12460;42.662;23.288;2023-04-26T13:14:22;93624.59;;;19.12;32.50
3832;BME280;12460;42.662;23.288;2023-04-26T13:29:27;93650.94;;;18.28;32.95
3832;BME280;12460;42.662;23.288;2023-04-26T13:44:32;93654.28;;;17.31;34.97
3832;BME280;12460;42.662;23.288;2023-04-26T13:59:37;93681.78;;;16.84;36.02
3832;BME280;12460;42.662;23.288;2023-04-26T14:14:43;93694.97;;;16.50;37.33
3832;BME280;12460;42.662;23.288;2023-04-26T14:29:49;93723.84;;;16.05;37.60
3832;BME280;12460;42.662;23.288;2023-04-26T14:44:58;93745.31;;;15.70;39.54
3832;BME280;12460;42.662;23.288;2023-04-26T15:00:02;93753.13;;;15.32;40.50
3832;BME280;12460;42.662;23.288;2023-04-26T15:15:10;93781.72;;;14.88;41.48
3832;BME280;12460;42.662;23.288;2023-04-26T15:30:14;93798.13;;;14.66;42.78
3832;BME280;12460;42.662;23.288;2023-04-26T15:45:19;93830.75;;;14.44;43.97
3832;BME280;12460;42.662;23.288;2023-04-26T16:00:24;93842.25;;;14.25;44.31
3832;BME280;12460;42.662;23.288;2023-04-26T16:15:29;93861.28;;;14.13;45.14
3832;BME280;12460;42.662;23.288;2023-04-26T16:30:37;93871.19;;;13.79;45.96
3832;BME280;12460;42.662;23.288;2023-04-26T16:45:42;93902.63;;;13.85;46.59
3832;BME280;12460;42.662;23.288;2023-04-26T17:00:47;93906.75;;;13.61;46.46
3832;BME280;12460;42.662;23.288;2023-04-26T17:15:53;93931.22;;;13.47;46.93
3832;BME280;12460;42.662;23.288;2023-04-26T17:30:58;93962.97;;;13.36;47.60
3832;BME280;12460;42.662;23.288;2023-04-26T17:46:03;93966.75;;;13.29;48.09
3832;BME280;12460;42.662;23.288;2023-04-26T18:01:08;93993.41;;;13.16;48.28
3832;BME280;12460;42.662;23.288;2023-04-26T18:16:12;94011.72;;;13.06;48.56
3832;BME280;12460;42.662;23.288;2023-04-26T18:31:21;94044.41;;;13.09;48.65
3832;BME280;12460;42.662;23.288;2023-04-26T18:46:26;94069.47;;;13.14;48.48
3832;BME280;12460;42.662;23.288;2023-04-26T19:01:31;94063.44;;;12.99;47.74
3832;BME280;12460;42.662;23.288;2023-04-26T19:16:36;94078.59;;;12.94;47.41
3832;BME280;12460;42.662;23.288;2023-04-26T19:31:41;94092.44;;;12.80;47.31
3832;BME280;12460;42.662;23.288;2023-04-26T19:46:50;94086.41;;;12.65;47.45
3832;BME280;12460;42.662;23.288;2023-04-26T20:01:54;94108.22;;;12.54;47.19
3832;BME280;12460;42.662;23.288;2023-04-26T20:17:00;94113.59;;;12.41;47.88
3832;BME280;12460;42.662;23.288;2023-04-26T20:32:05;94127.25;;;12.35;47.96
3832;BME280;12460;42.662;23.288;2023-04-26T20:47:09;94129.75;;;12.21;47.85
3832;BME280;12460;42.662;23.288;2023-04-26T21:02:15;94142.06;;;12.07;46.83
3832;BME280;12460;42.662;23.288;2023-04-26T21:17:20;94163.41;;;12.10;46.91
3832;BME280;12460;42.662;23.288;2023-04-26T21:32:25;94172.59;;;12.01;46.42
3832;BME280;12460;42.662;23.288;2023-04-26T21:47:29;94197.91;;;11.91;46.17
3832;BME280;12460;42.662;23.288;2023-04-26T22:02:34;94213.47;;;11.82;44.84
3832;BME280;12460;42.662;23.288;2023-04-26T22:17:39;94209.56;;;11.68;44.72
3832;BME280;12460;42.662;23.288;2023-04-26T22:32:44;94220.50;;;11.64;44.31
3832;BME280;12460;42.662;23.288;2023-04-26T22:47:49;94224.00;;;11.55;43.94
3832;BME280;12460;42.662;23.288;2023-04-26T23:02:54;94228.38;;;11.39;43.42
3832;BME280;12460;42.662;23.288;2023-04-26T23:17:59;94221.25;;;11.38;43.13
3832;BME280;12460;42.662;23.288;2023-04-26T23:33:04;94230.03;;;11.15;42.79
3832;BME280;12460;42.662;23.288;2023-04-26T23:48:09;94236.91;;;11.05;42.63
